<?xml version="1.0" encoding="UTF-8"?>
<gpx xmlns="http://www.topografix.com/GPX/1/1" xmlns:gpsies="http://www.gpsies.com/GPX/1/0" creator="GPSies http://www.gpsies.com - Eichenbruch-2" version="1.1" xmlns:xsi="http://www.w3.org/2001/XMLSchema-instance" xsi:schemaLocation="http://www.topografix.com/GPX/1/1 http://www.topografix.com/GPX/1/1/gpx.xsd http://www.gpsies.com/GPX/1/0 http://www.gpsies.com/gpsies.xsd">
  <metadata>
    <name>Eichenbruch-2</name>
    <link href="http://www.gpsies.com/">
      <text>Eichenbruch-2 on GPSies.com</text>
    </link>
    <time>2017-04-15T14:14:10Z</time>
  </metadata>
  <trk>
    <name>Eichenbruch-2 on GPSies.com</name>
    <trkseg>
      <trkpt lat="52.27097060" lon="9.379277220">
        <ele>109.00000</ele>
        <time>2010-01-01T00:00:00Z</time>
      </trkpt>
      <trkpt lat="52.27107900" lon="9.379899500">
        <ele>108.00000</ele>
        <time>2010-01-01T00:00:15Z</time>
      </trkpt>
      <trkpt lat="52.27128900" lon="9.379743930">
        <ele>106.00000</ele>
        <time>2010-01-01T00:00:25Z</time>
      </trkpt>
      <trkpt lat="52.27143680" lon="9.379786840">
        <ele>105.00000</ele>
        <time>2010-01-01T00:00:31Z</time>
      </trkpt>
      <trkpt lat="52.27166980" lon="9.378333090">
        <ele>106.00000</ele>
        <time>2010-01-01T00:01:07Z</time>
      </trkpt>
      <trkpt lat="52.27188320" lon="9.377024170">
        <ele>103.00000</ele>
        <time>2010-01-01T00:01:41Z</time>
      </trkpt>
      <trkpt lat="52.27249380" lon="9.377206560">
        <ele>101.00000</ele>
        <time>2010-01-01T00:02:05Z</time>
      </trkpt>
      <trkpt lat="52.27351130" lon="9.377512330">
        <ele>96.000000</ele>
        <time>2010-01-01T00:02:47Z</time>
      </trkpt>
      <trkpt lat="52.27370830" lon="9.376503820">
        <ele>96.000000</ele>
        <time>2010-01-01T00:03:13Z</time>
      </trkpt>
      <trkpt lat="52.27400700" lon="9.374915950">
        <ele>94.000000</ele>
        <time>2010-01-01T00:03:53Z</time>
      </trkpt>
      <trkpt lat="52.27407260" lon="9.374899860">
        <ele>94.000000</ele>
        <time>2010-01-01T00:03:56Z</time>
      </trkpt>
      <trkpt lat="52.27415470" lon="9.374497530">
        <ele>94.000000</ele>
        <time>2010-01-01T00:04:07Z</time>
      </trkpt>
      <trkpt lat="52.27424990" lon="9.373998640">
        <ele>94.000000</ele>
        <time>2010-01-01T00:04:19Z</time>
      </trkpt>
      <trkpt lat="52.27430570" lon="9.373773330">
        <ele>94.000000</ele>
        <time>2010-01-01T00:04:25Z</time>
      </trkpt>
      <trkpt lat="52.27431220" lon="9.373607030">
        <ele>93.000000</ele>
        <time>2010-01-01T00:04:29Z</time>
      </trkpt>
      <trkpt lat="52.27452890" lon="9.372453680">
        <ele>91.000000</ele>
        <time>2010-01-01T00:04:59Z</time>
      </trkpt>
      <trkpt lat="52.27454530" lon="9.372196190">
        <ele>90.000000</ele>
        <time>2010-01-01T00:05:05Z</time>
      </trkpt>
      <trkpt lat="52.27461750" lon="9.371708030">
        <ele>90.000000</ele>
        <time>2010-01-01T00:05:18Z</time>
      </trkpt>
      <trkpt lat="52.27468970" lon="9.371321790">
        <ele>89.000000</ele>
        <time>2010-01-01T00:05:27Z</time>
      </trkpt>
      <trkpt lat="52.27473890" lon="9.371123310">
        <ele>90.000000</ele>
        <time>2010-01-01T00:05:33Z</time>
      </trkpt>
      <trkpt lat="52.27480790" lon="9.370935550">
        <ele>89.000000</ele>
        <time>2010-01-01T00:05:38Z</time>
      </trkpt>
      <trkpt lat="52.27482430" lon="9.370817540">
        <ele>89.000000</ele>
        <time>2010-01-01T00:05:41Z</time>
      </trkpt>
      <trkpt lat="52.27490960" lon="9.370656600">
        <ele>90.000000</ele>
        <time>2010-01-01T00:05:46Z</time>
      </trkpt>
      <trkpt lat="52.27492930" lon="9.370602960">
        <ele>90.000000</ele>
        <time>2010-01-01T00:05:48Z</time>
      </trkpt>
      <trkpt lat="52.27499820" lon="9.370560050">
        <ele>90.000000</ele>
        <time>2010-01-01T00:05:51Z</time>
      </trkpt>
      <trkpt lat="52.27528050" lon="9.370506400">
        <ele>91.000000</ele>
        <time>2010-01-01T00:06:02Z</time>
      </trkpt>
      <trkpt lat="52.27549720" lon="9.370629780">
        <ele>93.000000</ele>
        <time>2010-01-01T00:06:11Z</time>
      </trkpt>
      <trkpt lat="52.27585820" lon="9.370576140">
        <ele>93.000000</ele>
        <time>2010-01-01T00:06:26Z</time>
      </trkpt>
      <trkpt lat="52.27614380" lon="9.370624420">
        <ele>93.000000</ele>
        <time>2010-01-01T00:06:37Z</time>
      </trkpt>
      <trkpt lat="52.27643920" lon="9.370822900">
        <ele>93.000000</ele>
        <time>2010-01-01T00:06:50Z</time>
      </trkpt>
      <trkpt lat="52.27665580" lon="9.370999930">
        <ele>94.000000</ele>
        <time>2010-01-01T00:07:00Z</time>
      </trkpt>
      <trkpt lat="52.27679690" lon="9.371058940">
        <ele>94.000000</ele>
        <time>2010-01-01T00:07:06Z</time>
      </trkpt>
      <trkpt lat="52.27695120" lon="9.371058940">
        <ele>94.000000</ele>
        <time>2010-01-01T00:07:12Z</time>
      </trkpt>
      <trkpt lat="52.27711200" lon="9.371005290">
        <ele>94.000000</ele>
        <time>2010-01-01T00:07:18Z</time>
      </trkpt>
      <trkpt lat="52.27726300" lon="9.370865820">
        <ele>92.000000</ele>
        <time>2010-01-01T00:07:25Z</time>
      </trkpt>
      <trkpt lat="52.27743370" lon="9.370661970">
        <ele>92.000000</ele>
        <time>2010-01-01T00:07:34Z</time>
      </trkpt>
      <trkpt lat="52.27758790" lon="9.370565410">
        <ele>92.000000</ele>
        <time>2010-01-01T00:07:40Z</time>
      </trkpt>
      <trkpt lat="52.27775860" lon="9.370592230">
        <ele>92.000000</ele>
        <time>2010-01-01T00:07:47Z</time>
      </trkpt>
      <trkpt lat="52.27786360" lon="9.370195260">
        <ele>92.000000</ele>
        <time>2010-01-01T00:07:58Z</time>
      </trkpt>
      <trkpt lat="52.27788660" lon="9.369980690">
        <ele>91.000000</ele>
        <time>2010-01-01T00:08:03Z</time>
      </trkpt>
      <trkpt lat="52.27784390" lon="9.369460340">
        <ele>87.000000</ele>
        <time>2010-01-01T00:08:16Z</time>
      </trkpt>
      <trkpt lat="52.27787350" lon="9.368972180">
        <ele>84.000000</ele>
        <time>2010-01-01T00:08:28Z</time>
      </trkpt>
      <trkpt lat="52.27794240" lon="9.368966810">
        <ele>85.000000</ele>
        <time>2010-01-01T00:08:31Z</time>
      </trkpt>
      <trkpt lat="52.27801130" lon="9.368913170">
        <ele>84.000000</ele>
        <time>2010-01-01T00:08:34Z</time>
      </trkpt>
      <trkpt lat="52.27809340" lon="9.369025820">
        <ele>86.000000</ele>
        <time>2010-01-01T00:08:38Z</time>
      </trkpt>
      <trkpt lat="52.27820170" lon="9.369106290">
        <ele>88.000000</ele>
        <time>2010-01-01T00:08:43Z</time>
      </trkpt>
      <trkpt lat="52.27835920" lon="9.369079470">
        <ele>89.000000</ele>
        <time>2010-01-01T00:08:49Z</time>
      </trkpt>
      <trkpt lat="52.27849380" lon="9.369079470">
        <ele>90.000000</ele>
        <time>2010-01-01T00:08:55Z</time>
      </trkpt>
      <trkpt lat="52.27928150" lon="9.368999000">
        <ele>97.000000</ele>
        <time>2010-01-01T00:09:26Z</time>
      </trkpt>
      <trkpt lat="52.27976070" lon="9.369036550">
        <ele>97.000000</ele>
        <time>2010-01-01T00:09:45Z</time>
      </trkpt>
      <trkpt lat="52.27995510" lon="9.369078120">
        <ele>96.000000</ele>
        <time>2010-01-01T00:09:53Z</time>
      </trkpt>
      <trkpt lat="52.28005600" lon="9.369133110">
        <ele>96.000000</ele>
        <time>2010-01-01T00:09:58Z</time>
      </trkpt>
      <trkpt lat="52.28018080" lon="9.368591300">
        <ele>93.000000</ele>
        <time>2010-01-01T00:10:12Z</time>
      </trkpt>
      <trkpt lat="52.27997730" lon="9.368467920">
        <ele>92.000000</ele>
        <time>2010-01-01T00:10:20Z</time>
      </trkpt>
      <trkpt lat="52.27993130" lon="9.368349900">
        <ele>91.000000</ele>
        <time>2010-01-01T00:10:24Z</time>
      </trkpt>
      <trkpt lat="52.27989850" lon="9.368156790">
        <ele>90.000000</ele>
        <time>2010-01-01T00:10:29Z</time>
      </trkpt>
      <trkpt lat="52.27962940" lon="9.367180460">
        <ele>86.000000</ele>
        <time>2010-01-01T00:10:55Z</time>
      </trkpt>
      <trkpt lat="52.28041380" lon="9.366048570">
        <ele>84.000000</ele>
        <time>2010-01-01T00:11:37Z</time>
      </trkpt>
      <trkpt lat="52.28094220" lon="9.365415570">
        <ele>81.000000</ele>
        <time>2010-01-01T00:12:03Z</time>
      </trkpt>
      <trkpt lat="52.28112270" lon="9.365437030">
        <ele>81.000000</ele>
        <time>2010-01-01T00:12:10Z</time>
      </trkpt>
      <trkpt lat="52.28151320" lon="9.365281460">
        <ele>82.000000</ele>
        <time>2010-01-01T00:12:26Z</time>
      </trkpt>
      <trkpt lat="52.28140160" lon="9.364224670">
        <ele>81.000000</ele>
        <time>2010-01-01T00:12:53Z</time>
      </trkpt>
      <trkpt lat="52.28201200" lon="9.364010090">
        <ele>80.000000</ele>
        <time>2010-01-01T00:13:18Z</time>
      </trkpt>
      <trkpt lat="52.28248130" lon="9.363854520">
        <ele>82.000000</ele>
        <time>2010-01-01T00:13:37Z</time>
      </trkpt>
      <trkpt lat="52.28267500" lon="9.363787470">
        <ele>83.000000</ele>
        <time>2010-01-01T00:13:45Z</time>
      </trkpt>
      <trkpt lat="52.28286940" lon="9.363694930">
        <ele>83.000000</ele>
        <time>2010-01-01T00:13:53Z</time>
      </trkpt>
      <trkpt lat="52.28311800" lon="9.363550090">
        <ele>83.000000</ele>
        <time>2010-01-01T00:14:03Z</time>
      </trkpt>
      <trkpt lat="52.28358240" lon="9.363275170">
        <ele>82.000000</ele>
        <time>2010-01-01T00:14:23Z</time>
      </trkpt>
      <trkpt lat="52.28379080" lon="9.363142400">
        <ele>82.000000</ele>
        <time>2010-01-01T00:14:32Z</time>
      </trkpt>
      <trkpt lat="52.28419770" lon="9.362862110">
        <ele>83.000000</ele>
        <time>2010-01-01T00:14:50Z</time>
      </trkpt>
      <trkpt lat="52.28453570" lon="9.362609980">
        <ele>83.000000</ele>
        <time>2010-01-01T00:15:05Z</time>
      </trkpt>
      <trkpt lat="52.28487120" lon="9.362351140">
        <ele>82.000000</ele>
        <time>2010-01-01T00:15:20Z</time>
      </trkpt>
      <trkpt lat="52.28520020" lon="9.362081580">
        <ele>81.000000</ele>
        <time>2010-01-01T00:15:34Z</time>
      </trkpt>
      <trkpt lat="52.28553170" lon="9.361818730">
        <ele>79.000000</ele>
        <time>2010-01-01T00:15:49Z</time>
      </trkpt>
      <trkpt lat="52.28611410" lon="9.361358730">
        <ele>78.000000</ele>
        <time>2010-01-01T00:16:15Z</time>
      </trkpt>
      <trkpt lat="52.28650130" lon="9.361056980">
        <ele>78.000000</ele>
        <time>2010-01-01T00:16:32Z</time>
      </trkpt>
      <trkpt lat="52.28677950" lon="9.360875930">
        <ele>78.000000</ele>
        <time>2010-01-01T00:16:44Z</time>
      </trkpt>
      <trkpt lat="52.28706170" lon="9.360698900">
        <ele>79.000000</ele>
        <time>2010-01-01T00:16:56Z</time>
      </trkpt>
      <trkpt lat="52.28780080" lon="9.360288530">
        <ele>79.000000</ele>
        <time>2010-01-01T00:17:27Z</time>
      </trkpt>
      <trkpt lat="52.28874500" lon="9.360001530">
        <ele>80.000000</ele>
        <time>2010-01-01T00:18:06Z</time>
      </trkpt>
      <trkpt lat="52.28890500" lon="9.359947890">
        <ele>80.000000</ele>
        <time>2010-01-01T00:18:12Z</time>
      </trkpt>
      <trkpt lat="52.28905430" lon="9.359880830">
        <ele>80.000000</ele>
        <time>2010-01-01T00:18:19Z</time>
      </trkpt>
      <trkpt lat="52.28919780" lon="9.359781590">
        <ele>80.000000</ele>
        <time>2010-01-01T00:18:25Z</time>
      </trkpt>
      <trkpt lat="52.28932580" lon="9.359652840">
        <ele>81.000000</ele>
        <time>2010-01-01T00:18:31Z</time>
      </trkpt>
      <trkpt lat="52.28940540" lon="9.359536170">
        <ele>82.000000</ele>
        <time>2010-01-01T00:18:35Z</time>
      </trkpt>
      <trkpt lat="52.28955960" lon="9.359251850">
        <ele>83.000000</ele>
        <time>2010-01-01T00:18:44Z</time>
      </trkpt>
      <trkpt lat="52.28975480" lon="9.358807950">
        <ele>81.000000</ele>
        <time>2010-01-01T00:18:58Z</time>
      </trkpt>
      <trkpt lat="52.28978680" lon="9.358652380">
        <ele>80.000000</ele>
        <time>2010-01-01T00:19:02Z</time>
      </trkpt>
      <trkpt lat="52.28978520" lon="9.358567890">
        <ele>79.000000</ele>
        <time>2010-01-01T00:19:04Z</time>
      </trkpt>
      <trkpt lat="52.28980240" lon="9.358522290">
        <ele>79.000000</ele>
        <time>2010-01-01T00:19:05Z</time>
      </trkpt>
      <trkpt lat="52.28985410" lon="9.358504860">
        <ele>79.000000</ele>
        <time>2010-01-01T00:19:07Z</time>
      </trkpt>
      <trkpt lat="52.28989430" lon="9.358486080">
        <ele>79.000000</ele>
        <time>2010-01-01T00:19:09Z</time>
      </trkpt>
      <trkpt lat="52.28996650" lon="9.358313080">
        <ele>78.000000</ele>
        <time>2010-01-01T00:19:14Z</time>
      </trkpt>
      <trkpt lat="52.29005510" lon="9.358377450">
        <ele>78.000000</ele>
        <time>2010-01-01T00:19:18Z</time>
      </trkpt>
      <trkpt lat="52.29016250" lon="9.358571910">
        <ele>79.000000</ele>
        <time>2010-01-01T00:19:24Z</time>
      </trkpt>
      <trkpt lat="52.29038320" lon="9.358807950">
        <ele>79.000000</ele>
        <time>2010-01-01T00:19:35Z</time>
      </trkpt>
      <trkpt lat="52.29051110" lon="9.358946080">
        <ele>79.000000</ele>
        <time>2010-01-01T00:19:41Z</time>
      </trkpt>
      <trkpt lat="52.29073100" lon="9.359117740">
        <ele>79.000000</ele>
        <time>2010-01-01T00:19:51Z</time>
      </trkpt>
      <trkpt lat="52.29126910" lon="9.359423510">
        <ele>79.000000</ele>
        <time>2010-01-01T00:20:14Z</time>
      </trkpt>
      <trkpt lat="52.29198440" lon="9.359648820">
        <ele>79.000000</ele>
        <time>2010-01-01T00:20:43Z</time>
      </trkpt>
      <trkpt lat="52.29304410" lon="9.359884850">
        <ele>79.000000</ele>
        <time>2010-01-01T00:21:26Z</time>
      </trkpt>
      <trkpt lat="52.29335580" lon="9.359929110">
        <ele>77.000000</ele>
        <time>2010-01-01T00:21:38Z</time>
      </trkpt>
      <trkpt lat="52.29350430" lon="9.359941180">
        <ele>77.000000</ele>
        <time>2010-01-01T00:21:44Z</time>
      </trkpt>
      <trkpt lat="52.29361180" lon="9.359927770">
        <ele>77.000000</ele>
        <time>2010-01-01T00:21:48Z</time>
      </trkpt>
      <trkpt lat="52.29376100" lon="9.359864740">
        <ele>77.000000</ele>
        <time>2010-01-01T00:21:55Z</time>
      </trkpt>
      <trkpt lat="52.29401200" lon="9.359713190">
        <ele>76.000000</ele>
        <time>2010-01-01T00:22:05Z</time>
      </trkpt>
      <trkpt lat="52.29407770" lon="9.359686370">
        <ele>76.000000</ele>
        <time>2010-01-01T00:22:08Z</time>
      </trkpt>
      <trkpt lat="52.29422120" lon="9.359717220">
        <ele>76.000000</ele>
        <time>2010-01-01T00:22:14Z</time>
      </trkpt>
      <trkpt lat="52.29980500" lon="9.361988000">
        <ele>75.000000</ele>
        <time>2010-01-01T00:26:04Z</time>
      </trkpt>
      <trkpt lat="52.30107400" lon="9.362516000">
        <ele>77.000000</ele>
        <time>2010-01-01T00:26:57Z</time>
      </trkpt>
      <trkpt lat="52.30199500" lon="9.362906000">
        <ele>75.000000</ele>
        <time>2010-01-01T00:27:35Z</time>
      </trkpt>
      <trkpt lat="52.30236200" lon="9.363043000">
        <ele>75.000000</ele>
        <time>2010-01-01T00:27:50Z</time>
      </trkpt>
      <trkpt lat="52.30273800" lon="9.363141000">
        <ele>74.000000</ele>
        <time>2010-01-01T00:28:05Z</time>
      </trkpt>
      <trkpt lat="52.30348100" lon="9.363301000">
        <ele>74.000000</ele>
        <time>2010-01-01T00:28:35Z</time>
      </trkpt>
      <trkpt lat="52.30370400" lon="9.363313000">
        <ele>75.000000</ele>
        <time>2010-01-01T00:28:44Z</time>
      </trkpt>
      <trkpt lat="52.30400460" lon="9.363393180">
        <ele>76.000000</ele>
        <time>2010-01-01T00:28:56Z</time>
      </trkpt>
      <trkpt lat="52.30403410" lon="9.362250560">
        <ele>74.000000</ele>
        <time>2010-01-01T00:29:24Z</time>
      </trkpt>
      <trkpt lat="52.30412270" lon="9.361639020">
        <ele>72.000000</ele>
        <time>2010-01-01T00:29:39Z</time>
      </trkpt>
      <trkpt lat="52.30415880" lon="9.361075750">
        <ele>72.000000</ele>
        <time>2010-01-01T00:29:53Z</time>
      </trkpt>
      <trkpt lat="52.30418830" lon="9.360051150">
        <ele>72.000000</ele>
        <time>2010-01-01T00:30:18Z</time>
      </trkpt>
      <trkpt lat="52.30420470" lon="9.359713190">
        <ele>71.000000</ele>
        <time>2010-01-01T00:30:27Z</time>
      </trkpt>
      <trkpt lat="52.30423750" lon="9.359182110">
        <ele>71.000000</ele>
        <time>2010-01-01T00:30:40Z</time>
      </trkpt>
      <trkpt lat="52.30394890" lon="9.358983630">
        <ele>70.000000</ele>
        <time>2010-01-01T00:30:52Z</time>
      </trkpt>
      <trkpt lat="52.30403090" lon="9.357379670">
        <ele>69.000000</ele>
        <time>2010-01-01T00:31:32Z</time>
      </trkpt>
      <trkpt lat="52.30530360" lon="9.357883930">
        <ele>69.000000</ele>
        <time>2010-01-01T00:32:24Z</time>
      </trkpt>
      <trkpt lat="52.30558560" lon="9.358023400">
        <ele>69.000000</ele>
        <time>2010-01-01T00:32:36Z</time>
      </trkpt>
      <trkpt lat="52.30629090" lon="9.358307710">
        <ele>68.000000</ele>
        <time>2010-01-01T00:33:05Z</time>
      </trkpt>
      <trkpt lat="52.30793080" lon="9.359048000">
        <ele>69.000000</ele>
        <time>2010-01-01T00:34:13Z</time>
      </trkpt>
      <trkpt lat="52.30800630" lon="9.359096280">
        <ele>69.000000</ele>
        <time>2010-01-01T00:34:16Z</time>
      </trkpt>
      <trkpt lat="52.30805220" lon="9.359026550">
        <ele>69.000000</ele>
        <time>2010-01-01T00:34:19Z</time>
      </trkpt>
      <trkpt lat="52.30831460" lon="9.358747600">
        <ele>68.000000</ele>
        <time>2010-01-01T00:34:31Z</time>
      </trkpt>
      <trkpt lat="52.30843270" lon="9.358704680">
        <ele>68.000000</ele>
        <time>2010-01-01T00:34:36Z</time>
      </trkpt>
      <trkpt lat="52.30935430" lon="9.358651040">
        <ele>69.000000</ele>
        <time>2010-01-01T00:35:13Z</time>
      </trkpt>
      <trkpt lat="52.31012830" lon="9.358672490">
        <ele>69.000000</ele>
        <time>2010-01-01T00:35:44Z</time>
      </trkpt>
      <trkpt lat="52.31023000" lon="9.358484740">
        <ele>69.000000</ele>
        <time>2010-01-01T00:35:50Z</time>
      </trkpt>
      <trkpt lat="52.31122370" lon="9.358554480">
        <ele>72.000000</ele>
        <time>2010-01-01T00:36:30Z</time>
      </trkpt>
      <trkpt lat="52.31129260" lon="9.357358210">
        <ele>73.000000</ele>
        <time>2010-01-01T00:36:59Z</time>
      </trkpt>
      <trkpt lat="52.31167960" lon="9.357379670">
        <ele>71.000000</ele>
        <time>2010-01-01T00:37:15Z</time>
      </trkpt>
      <trkpt lat="52.31198460" lon="9.357427950">
        <ele>70.000000</ele>
        <time>2010-01-01T00:37:27Z</time>
      </trkpt>
      <trkpt lat="52.31224370" lon="9.357524510">
        <ele>69.000000</ele>
        <time>2010-01-01T00:37:38Z</time>
      </trkpt>
      <trkpt lat="52.31231910" lon="9.357465500">
        <ele>68.000000</ele>
        <time>2010-01-01T00:37:41Z</time>
      </trkpt>
      <trkpt lat="52.31254870" lon="9.357578150">
        <ele>68.000000</ele>
        <time>2010-01-01T00:37:51Z</time>
      </trkpt>
      <trkpt lat="52.31280450" lon="9.357621070">
        <ele>68.000000</ele>
        <time>2010-01-01T00:38:01Z</time>
      </trkpt>
      <trkpt lat="52.31296850" lon="9.357556700">
        <ele>68.000000</ele>
        <time>2010-01-01T00:38:08Z</time>
      </trkpt>
      <trkpt lat="52.31316520" lon="9.357256290">
        <ele>69.000000</ele>
        <time>2010-01-01T00:38:19Z</time>
      </trkpt>
      <trkpt lat="52.31314560" lon="9.356322880">
        <ele>70.000000</ele>
        <time>2010-01-01T00:38:42Z</time>
      </trkpt>
      <trkpt lat="52.31308330" lon="9.356253140">
        <ele>70.000000</ele>
        <time>2010-01-01T00:38:45Z</time>
      </trkpt>
      <trkpt lat="52.31298810" lon="9.355877630">
        <ele>69.000000</ele>
        <time>2010-01-01T00:38:54Z</time>
      </trkpt>
      <trkpt lat="52.31274550" lon="9.355410930">
        <ele>68.000000</ele>
        <time>2010-01-01T00:39:09Z</time>
      </trkpt>
      <trkpt lat="52.31288320" lon="9.355427020">
        <ele>68.000000</ele>
        <time>2010-01-01T00:39:15Z</time>
      </trkpt>
      <trkpt lat="52.31311610" lon="9.355400200">
        <ele>68.000000</ele>
        <time>2010-01-01T00:39:24Z</time>
      </trkpt>
      <trkpt lat="52.31319480" lon="9.355260720">
        <ele>68.000000</ele>
        <time>2010-01-01T00:39:29Z</time>
      </trkpt>
      <trkpt lat="52.31329640" lon="9.354933500">
        <ele>68.000000</ele>
        <time>2010-01-01T00:39:38Z</time>
      </trkpt>
      <trkpt lat="52.31330950" lon="9.354697460">
        <ele>68.000000</ele>
        <time>2010-01-01T00:39:44Z</time>
      </trkpt>
      <trkpt lat="52.31322100" lon="9.354622360">
        <ele>68.000000</ele>
        <time>2010-01-01T00:39:48Z</time>
      </trkpt>
      <trkpt lat="52.31336860" lon="9.354397050">
        <ele>69.000000</ele>
        <time>2010-01-01T00:39:56Z</time>
      </trkpt>
      <trkpt lat="52.31344730" lon="9.354128830">
        <ele>71.000000</ele>
        <time>2010-01-01T00:40:03Z</time>
      </trkpt>
      <trkpt lat="52.31360800" lon="9.353061310">
        <ele>76.000000</ele>
        <time>2010-01-01T00:40:30Z</time>
      </trkpt>
      <trkpt lat="52.31449010" lon="9.353490470">
        <ele>74.000000</ele>
        <time>2010-01-01T00:41:07Z</time>
      </trkpt>
      <trkpt lat="52.31477550" lon="9.353737230">
        <ele>73.000000</ele>
        <time>2010-01-01T00:41:20Z</time>
      </trkpt>
      <trkpt lat="52.31478200" lon="9.353876700">
        <ele>72.000000</ele>
        <time>2010-01-01T00:41:23Z</time>
      </trkpt>
      <trkpt lat="52.31496570" lon="9.354085920">
        <ele>71.000000</ele>
        <time>2010-01-01T00:41:32Z</time>
      </trkpt>
      <trkpt lat="52.31502800" lon="9.354085920">
        <ele>71.000000</ele>
        <time>2010-01-01T00:41:35Z</time>
      </trkpt>
      <trkpt lat="52.31508040" lon="9.353989360">
        <ele>72.000000</ele>
        <time>2010-01-01T00:41:38Z</time>
      </trkpt>
      <trkpt lat="52.31506400" lon="9.353865980">
        <ele>73.000000</ele>
        <time>2010-01-01T00:41:41Z</time>
      </trkpt>
      <trkpt lat="52.31528050" lon="9.353672860">
        <ele>75.000000</ele>
        <time>2010-01-01T00:41:51Z</time>
      </trkpt>
      <trkpt lat="52.31632000" lon="9.353377810">
        <ele>76.000000</ele>
        <time>2010-01-01T00:42:33Z</time>
      </trkpt>
      <trkpt lat="52.31693000" lon="9.353109590">
        <ele>71.000000</ele>
        <time>2010-01-01T00:42:58Z</time>
      </trkpt>
      <trkpt lat="52.31715290" lon="9.352905750">
        <ele>73.000000</ele>
        <time>2010-01-01T00:43:09Z</time>
      </trkpt>
      <trkpt lat="52.31723820" lon="9.352760910">
        <ele>74.000000</ele>
        <time>2010-01-01T00:43:13Z</time>
      </trkpt>
      <trkpt lat="52.31717590" lon="9.352680440">
        <ele>74.000000</ele>
        <time>2010-01-01T00:43:17Z</time>
      </trkpt>
      <trkpt lat="52.31758910" lon="9.351709480">
        <ele>82.000000</ele>
        <time>2010-01-01T00:43:46Z</time>
      </trkpt>
      <trkpt lat="52.31769730" lon="9.351505630">
        <ele>83.000000</ele>
        <time>2010-01-01T00:43:52Z</time>
      </trkpt>
      <trkpt lat="52.31798260" lon="9.350727790">
        <ele>88.000000</ele>
        <time>2010-01-01T00:44:14Z</time>
      </trkpt>
      <trkpt lat="52.31819900" lon="9.350277180">
        <ele>90.000000</ele>
        <time>2010-01-01T00:44:28Z</time>
      </trkpt>
      <trkpt lat="52.31846460" lon="9.349805110">
        <ele>89.000000</ele>
        <time>2010-01-01T00:44:44Z</time>
      </trkpt>
      <trkpt lat="52.31895980" lon="9.349139920">
        <ele>86.000000</ele>
        <time>2010-01-01T00:45:10Z</time>
      </trkpt>
      <trkpt lat="52.31895980" lon="9.348978990">
        <ele>86.000000</ele>
        <time>2010-01-01T00:45:14Z</time>
      </trkpt>
      <trkpt lat="52.31905490" lon="9.348866340">
        <ele>85.000000</ele>
        <time>2010-01-01T00:45:18Z</time>
      </trkpt>
      <trkpt lat="52.31915320" lon="9.348877070">
        <ele>85.000000</ele>
        <time>2010-01-01T00:45:22Z</time>
      </trkpt>
      <trkpt lat="52.31922860" lon="9.348860970">
        <ele>85.000000</ele>
        <time>2010-01-01T00:45:25Z</time>
      </trkpt>
      <trkpt lat="52.31965490" lon="9.348523020">
        <ele>85.000000</ele>
        <time>2010-01-01T00:45:44Z</time>
      </trkpt>
      <trkpt lat="52.32045830" lon="9.348029490">
        <ele>83.000000</ele>
        <time>2010-01-01T00:46:19Z</time>
      </trkpt>
      <trkpt lat="52.32123210" lon="9.347310660">
        <ele>82.000000</ele>
        <time>2010-01-01T00:46:54Z</time>
      </trkpt>
      <trkpt lat="52.32158620" lon="9.346956610">
        <ele>83.000000</ele>
        <time>2010-01-01T00:47:11Z</time>
      </trkpt>
      <trkpt lat="52.32173380" lon="9.346929780">
        <ele>84.000000</ele>
        <time>2010-01-01T00:47:17Z</time>
      </trkpt>
      <trkpt lat="52.32204850" lon="9.346677660">
        <ele>83.000000</ele>
        <time>2010-01-01T00:47:31Z</time>
      </trkpt>
      <trkpt lat="52.32209450" lon="9.346715210">
        <ele>83.000000</ele>
        <time>2010-01-01T00:47:33Z</time>
      </trkpt>
      <trkpt lat="52.32240590" lon="9.346436260">
        <ele>83.000000</ele>
        <time>2010-01-01T00:47:47Z</time>
      </trkpt>
      <trkpt lat="52.32290430" lon="9.345964190">
        <ele>82.000000</ele>
        <time>2010-01-01T00:48:10Z</time>
      </trkpt>
      <trkpt lat="52.32306830" lon="9.345706700">
        <ele>81.000000</ele>
        <time>2010-01-01T00:48:19Z</time>
      </trkpt>
      <trkpt lat="52.32310760" lon="9.345567220">
        <ele>81.000000</ele>
        <time>2010-01-01T00:48:23Z</time>
      </trkpt>
      <trkpt lat="52.32312730" lon="9.345427750">
        <ele>80.000000</ele>
        <time>2010-01-01T00:48:27Z</time>
      </trkpt>
      <trkpt lat="52.32312730" lon="9.345234630">
        <ele>80.000000</ele>
        <time>2010-01-01T00:48:31Z</time>
      </trkpt>
      <trkpt lat="52.32318300" lon="9.345041510">
        <ele>80.000000</ele>
        <time>2010-01-01T00:48:37Z</time>
      </trkpt>
      <trkpt lat="52.32324200" lon="9.344907400">
        <ele>80.000000</ele>
        <time>2010-01-01T00:48:41Z</time>
      </trkpt>
      <trkpt lat="52.32348790" lon="9.344735740">
        <ele>80.000000</ele>
        <time>2010-01-01T00:48:51Z</time>
      </trkpt>
      <trkpt lat="52.32374370" lon="9.344510430">
        <ele>80.000000</ele>
        <time>2010-01-01T00:49:03Z</time>
      </trkpt>
      <trkpt lat="52.32393710" lon="9.344226120">
        <ele>79.000000</ele>
        <time>2010-01-01T00:49:13Z</time>
      </trkpt>
      <trkpt lat="52.32406170" lon="9.343952530">
        <ele>79.000000</ele>
        <time>2010-01-01T00:49:22Z</time>
      </trkpt>
      <trkpt lat="52.32409450" lon="9.343791600">
        <ele>79.000000</ele>
        <time>2010-01-01T00:49:26Z</time>
      </trkpt>
      <trkpt lat="52.32407810" lon="9.343646760">
        <ele>79.000000</ele>
        <time>2010-01-01T00:49:29Z</time>
      </trkpt>
      <trkpt lat="52.32397650" lon="9.343228340">
        <ele>80.000000</ele>
        <time>2010-01-01T00:49:40Z</time>
      </trkpt>
      <trkpt lat="52.32395350" lon="9.343056670">
        <ele>80.000000</ele>
        <time>2010-01-01T00:49:45Z</time>
      </trkpt>
      <trkpt lat="52.32389450" lon="9.341865770">
        <ele>81.000000</ele>
        <time>2010-01-01T00:50:14Z</time>
      </trkpt>
      <trkpt lat="52.32390760" lon="9.341731660">
        <ele>81.000000</ele>
        <time>2010-01-01T00:50:17Z</time>
      </trkpt>
      <trkpt lat="52.32394040" lon="9.341651200">
        <ele>82.000000</ele>
        <time>2010-01-01T00:50:20Z</time>
      </trkpt>
      <trkpt lat="52.32401250" lon="9.341592190">
        <ele>82.000000</ele>
        <time>2010-01-01T00:50:23Z</time>
      </trkpt>
      <trkpt lat="52.32475350" lon="9.341077200">
        <ele>83.000000</ele>
        <time>2010-01-01T00:50:55Z</time>
      </trkpt>
      <trkpt lat="52.32485840" lon="9.340980640">
        <ele>82.000000</ele>
        <time>2010-01-01T00:51:00Z</time>
      </trkpt>
      <trkpt lat="52.32495020" lon="9.340857260">
        <ele>82.000000</ele>
        <time>2010-01-01T00:51:05Z</time>
      </trkpt>
      <trkpt lat="52.32529450" lon="9.340369100">
        <ele>81.000000</ele>
        <time>2010-01-01T00:51:23Z</time>
      </trkpt>
      <trkpt lat="52.32578630" lon="9.339854120">
        <ele>82.000000</ele>
        <time>2010-01-01T00:51:46Z</time>
      </trkpt>
      <trkpt lat="52.32619940" lon="9.339467880">
        <ele>82.000000</ele>
        <time>2010-01-01T00:52:05Z</time>
      </trkpt>
      <trkpt lat="52.32628790" lon="9.339365950">
        <ele>83.000000</ele>
        <time>2010-01-01T00:52:10Z</time>
      </trkpt>
      <trkpt lat="52.32638630" lon="9.339301580">
        <ele>84.000000</ele>
        <time>2010-01-01T00:52:14Z</time>
      </trkpt>
      <trkpt lat="52.32648790" lon="9.339280120">
        <ele>83.000000</ele>
        <time>2010-01-01T00:52:18Z</time>
      </trkpt>
      <trkpt lat="52.32678620" lon="9.339328400">
        <ele>82.000000</ele>
        <time>2010-01-01T00:52:30Z</time>
      </trkpt>
      <trkpt lat="52.32690430" lon="9.339360590">
        <ele>81.000000</ele>
        <time>2010-01-01T00:52:35Z</time>
      </trkpt>
      <trkpt lat="52.32701570" lon="9.339365950">
        <ele>81.000000</ele>
        <time>2010-01-01T00:52:39Z</time>
      </trkpt>
      <trkpt lat="52.32722880" lon="9.339333770">
        <ele>80.000000</ele>
        <time>2010-01-01T00:52:48Z</time>
      </trkpt>
      <trkpt lat="52.32758620" lon="9.339188930">
        <ele>78.000000</ele>
        <time>2010-01-01T00:53:03Z</time>
      </trkpt>
      <trkpt lat="52.32804840" lon="9.338888520">
        <ele>76.000000</ele>
        <time>2010-01-01T00:53:22Z</time>
      </trkpt>
      <trkpt lat="52.32816650" lon="9.338834880">
        <ele>74.000000</ele>
        <time>2010-01-01T00:53:27Z</time>
      </trkpt>
      <trkpt lat="52.32816650" lon="9.338722220">
        <ele>76.000000</ele>
        <time>2010-01-01T00:53:30Z</time>
      </trkpt>
      <trkpt lat="52.32827140" lon="9.338652490">
        <ele>75.000000</ele>
        <time>2010-01-01T00:53:35Z</time>
      </trkpt>
      <trkpt lat="52.32968430" lon="9.338958260">
        <ele>68.000000</ele>
        <time>2010-01-01T00:54:32Z</time>
      </trkpt>
      <trkpt lat="52.32989410" lon="9.338974350">
        <ele>68.000000</ele>
        <time>2010-01-01T00:54:40Z</time>
      </trkpt>
      <trkpt lat="52.32999580" lon="9.338952890">
        <ele>68.000000</ele>
        <time>2010-01-01T00:54:44Z</time>
      </trkpt>
      <trkpt lat="52.33005480" lon="9.339022630">
        <ele>68.000000</ele>
        <time>2010-01-01T00:54:47Z</time>
      </trkpt>
      <trkpt lat="52.33018260" lon="9.339065550">
        <ele>68.000000</ele>
        <time>2010-01-01T00:54:52Z</time>
      </trkpt>
      <trkpt lat="52.33058910" lon="9.337638610">
        <ele>69.000000</ele>
        <time>2010-01-01T00:55:31Z</time>
      </trkpt>
      <trkpt lat="52.33103820" lon="9.336410160">
        <ele>70.000000</ele>
        <time>2010-01-01T00:56:06Z</time>
      </trkpt>
      <trkpt lat="52.33138570" lon="9.335702060">
        <ele>73.000000</ele>
        <time>2010-01-01T00:56:28Z</time>
      </trkpt>
      <trkpt lat="52.33186760" lon="9.334918850">
        <ele>73.000000</ele>
        <time>2010-01-01T00:56:55Z</time>
      </trkpt>
      <trkpt lat="52.33222490" lon="9.334436050">
        <ele>75.000000</ele>
        <time>2010-01-01T00:57:14Z</time>
      </trkpt>
      <trkpt lat="52.33276580" lon="9.333899610">
        <ele>77.000000</ele>
        <time>2010-01-01T00:57:39Z</time>
      </trkpt>
      <trkpt lat="52.33384760" lon="9.332960840">
        <ele>79.000000</ele>
        <time>2010-01-01T00:58:28Z</time>
      </trkpt>
      <trkpt lat="52.33416880" lon="9.332644340">
        <ele>81.000000</ele>
        <time>2010-01-01T00:58:43Z</time>
      </trkpt>
      <trkpt lat="52.33432290" lon="9.332606790">
        <ele>82.000000</ele>
        <time>2010-01-01T00:58:49Z</time>
      </trkpt>
      <trkpt lat="52.33444090" lon="9.332488770">
        <ele>84.000000</ele>
        <time>2010-01-01T00:58:55Z</time>
      </trkpt>
      <trkpt lat="52.33455560" lon="9.332290290">
        <ele>85.000000</ele>
        <time>2010-01-01T00:59:02Z</time>
      </trkpt>
      <trkpt lat="52.33517510" lon="9.331351510">
        <ele>86.000000</ele>
        <time>2010-01-01T00:59:35Z</time>
      </trkpt>
      <trkpt lat="52.33565370" lon="9.330423470">
        <ele>90.000000</ele>
        <time>2010-01-01T01:00:05Z</time>
      </trkpt>
      <trkpt lat="52.33602080" lon="9.329586620">
        <ele>92.000000</ele>
        <time>2010-01-01T01:00:30Z</time>
      </trkpt>
      <trkpt lat="52.33652890" lon="9.327848550">
        <ele>92.000000</ele>
        <time>2010-01-01T01:01:17Z</time>
      </trkpt>
      <trkpt lat="52.33771210" lon="9.322966930">
        <ele>98.000000</ele>
        <time>2010-01-01T01:03:26Z</time>
      </trkpt>
      <trkpt lat="52.33825620" lon="9.320633410">
        <ele>99.000000</ele>
        <time>2010-01-01T01:04:27Z</time>
      </trkpt>
      <trkpt lat="52.33850530" lon="9.319721460">
        <ele>98.000000</ele>
        <time>2010-01-01T01:04:51Z</time>
      </trkpt>
      <trkpt lat="52.33906250" lon="9.318165770">
        <ele>93.000000</ele>
        <time>2010-01-01T01:05:36Z</time>
      </trkpt>
      <trkpt lat="52.33922970" lon="9.317522040">
        <ele>92.000000</ele>
        <time>2010-01-01T01:05:53Z</time>
      </trkpt>
      <trkpt lat="52.33938040" lon="9.316717380">
        <ele>91.000000</ele>
        <time>2010-01-01T01:06:13Z</time>
      </trkpt>
      <trkpt lat="52.33941320" lon="9.316331140">
        <ele>90.000000</ele>
        <time>2010-01-01T01:06:23Z</time>
      </trkpt>
      <trkpt lat="52.33932800" lon="9.316315050">
        <ele>91.000000</ele>
        <time>2010-01-01T01:06:26Z</time>
      </trkpt>
      <trkpt lat="52.33927560" lon="9.316433070">
        <ele>92.000000</ele>
        <time>2010-01-01T01:06:30Z</time>
      </trkpt>
      <trkpt lat="52.33917400" lon="9.316985600">
        <ele>93.000000</ele>
        <time>2010-01-01T01:06:44Z</time>
      </trkpt>
      <trkpt lat="52.33764990" lon="9.316218490">
        <ele>99.000000</ele>
        <time>2010-01-01T01:07:48Z</time>
      </trkpt>
      <trkpt lat="52.33792520" lon="9.315258260">
        <ele>93.000000</ele>
        <time>2010-01-01T01:08:14Z</time>
      </trkpt>
      <trkpt lat="52.33811530" lon="9.314491150">
        <ele>93.000000</ele>
        <time>2010-01-01T01:08:34Z</time>
      </trkpt>
      <trkpt lat="52.33812510" lon="9.314335580">
        <ele>93.000000</ele>
        <time>2010-01-01T01:08:38Z</time>
      </trkpt>
      <trkpt lat="52.33787600" lon="9.314367770">
        <ele>97.000000</ele>
        <time>2010-01-01T01:08:48Z</time>
      </trkpt>
      <trkpt lat="52.33752530" lon="9.314260480">
        <ele>104.00000</ele>
        <time>2010-01-01T01:09:02Z</time>
      </trkpt>
      <trkpt lat="52.33729590" lon="9.314019080">
        <ele>108.00000</ele>
        <time>2010-01-01T01:09:13Z</time>
      </trkpt>
      <trkpt lat="52.33711890" lon="9.313793770">
        <ele>111.00000</ele>
        <time>2010-01-01T01:09:22Z</time>
      </trkpt>
      <trkpt lat="52.33673210" lon="9.312742350">
        <ele>115.00000</ele>
        <time>2010-01-01T01:09:52Z</time>
      </trkpt>
      <trkpt lat="52.33658460" lon="9.312458030">
        <ele>115.00000</ele>
        <time>2010-01-01T01:10:01Z</time>
      </trkpt>
      <trkpt lat="52.33642070" lon="9.312227360">
        <ele>115.00000</ele>
        <time>2010-01-01T01:10:10Z</time>
      </trkpt>
      <trkpt lat="52.33607330" lon="9.311841130">
        <ele>118.00000</ele>
        <time>2010-01-01T01:10:27Z</time>
      </trkpt>
      <trkpt lat="52.33584050" lon="9.311621180">
        <ele>120.00000</ele>
        <time>2010-01-01T01:10:37Z</time>
      </trkpt>
      <trkpt lat="52.33552910" lon="9.311154480">
        <ele>125.00000</ele>
        <time>2010-01-01T01:10:54Z</time>
      </trkpt>
      <trkpt lat="52.33498830" lon="9.310226440">
        <ele>134.00000</ele>
        <time>2010-01-01T01:11:26Z</time>
      </trkpt>
      <trkpt lat="52.33470640" lon="9.309958210">
        <ele>137.00000</ele>
        <time>2010-01-01T01:11:39Z</time>
      </trkpt>
      <trkpt lat="52.33428350" lon="9.308992620">
        <ele>141.00000</ele>
        <time>2010-01-01T01:12:08Z</time>
      </trkpt>
      <trkpt lat="52.33394920" lon="9.308150410">
        <ele>143.00000</ele>
        <time>2010-01-01T01:12:32Z</time>
      </trkpt>
      <trkpt lat="52.33333620" lon="9.307249180">
        <ele>151.00000</ele>
        <time>2010-01-01T01:13:05Z</time>
      </trkpt>
      <trkpt lat="52.33281170" lon="9.305258980">
        <ele>157.00000</ele>
        <time>2010-01-01T01:13:58Z</time>
      </trkpt>
      <trkpt lat="52.33275930" lon="9.305135600">
        <ele>157.00000</ele>
        <time>2010-01-01T01:14:02Z</time>
      </trkpt>
      <trkpt lat="52.33232980" lon="9.304347030">
        <ele>162.00000</ele>
        <time>2010-01-01T01:14:28Z</time>
      </trkpt>
      <trkpt lat="52.33213320" lon="9.303832050">
        <ele>164.00000</ele>
        <time>2010-01-01T01:14:43Z</time>
      </trkpt>
      <trkpt lat="52.33206100" lon="9.303258060">
        <ele>165.00000</ele>
        <time>2010-01-01T01:14:57Z</time>
      </trkpt>
      <trkpt lat="52.33206430" lon="9.302866450">
        <ele>164.00000</ele>
        <time>2010-01-01T01:15:07Z</time>
      </trkpt>
      <trkpt lat="52.33201190" lon="9.302549950">
        <ele>164.00000</ele>
        <time>2010-01-01T01:15:15Z</time>
      </trkpt>
      <trkpt lat="52.33177260" lon="9.302126160">
        <ele>163.00000</ele>
        <time>2010-01-01T01:15:29Z</time>
      </trkpt>
      <trkpt lat="52.33103820" lon="9.302120800">
        <ele>166.00000</ele>
        <time>2010-01-01T01:15:58Z</time>
      </trkpt>
      <trkpt lat="52.33032690" lon="9.301723830">
        <ele>167.00000</ele>
        <time>2010-01-01T01:16:28Z</time>
      </trkpt>
      <trkpt lat="52.32938270" lon="9.300929900">
        <ele>169.00000</ele>
        <time>2010-01-01T01:17:11Z</time>
      </trkpt>
      <trkpt lat="52.32915330" lon="9.300565120">
        <ele>171.00000</ele>
        <time>2010-01-01T01:17:23Z</time>
      </trkpt>
      <trkpt lat="52.32876310" lon="9.299401040">
        <ele>167.00000</ele>
        <time>2010-01-01T01:17:56Z</time>
      </trkpt>
      <trkpt lat="52.32814020" lon="9.297094340">
        <ele>165.00000</ele>
        <time>2010-01-01T01:18:58Z</time>
      </trkpt>
      <trkpt lat="52.32798290" lon="9.295141690">
        <ele>162.00000</ele>
        <time>2010-01-01T01:19:46Z</time>
      </trkpt>
      <trkpt lat="52.32812710" lon="9.294766180">
        <ele>162.00000</ele>
        <time>2010-01-01T01:19:57Z</time>
      </trkpt>
      <trkpt lat="52.32944500" lon="9.293435810">
        <ele>156.00000</ele>
        <time>2010-01-01T01:20:59Z</time>
      </trkpt>
      <trkpt lat="52.33096940" lon="9.291611900">
        <ele>149.00000</ele>
        <time>2010-01-01T01:22:14Z</time>
      </trkpt>
      <trkpt lat="52.33175290" lon="9.290860890">
        <ele>142.00000</ele>
        <time>2010-01-01T01:22:51Z</time>
      </trkpt>
      <trkpt lat="52.33246420" lon="9.290131330">
        <ele>125.00000</ele>
        <time>2010-01-01T01:23:24Z</time>
      </trkpt>
      <trkpt lat="52.33336240" lon="9.289155000">
        <ele>109.00000</ele>
        <time>2010-01-01T01:24:07Z</time>
      </trkpt>
      <trkpt lat="52.33304450" lon="9.288741940">
        <ele>107.00000</ele>
        <time>2010-01-01T01:24:24Z</time>
      </trkpt>
      <trkpt lat="52.33287070" lon="9.288350340">
        <ele>104.00000</ele>
        <time>2010-01-01T01:24:35Z</time>
      </trkpt>
      <trkpt lat="52.33273960" lon="9.287883630">
        <ele>102.00000</ele>
        <time>2010-01-01T01:24:48Z</time>
      </trkpt>
      <trkpt lat="52.33252650" lon="9.286928770">
        <ele>101.00000</ele>
        <time>2010-01-01T01:25:13Z</time>
      </trkpt>
      <trkpt lat="52.33222820" lon="9.284702530">
        <ele>101.00000</ele>
        <time>2010-01-01T01:26:09Z</time>
      </trkpt>
      <trkpt lat="52.33226760" lon="9.284482590">
        <ele>101.00000</ele>
        <time>2010-01-01T01:26:14Z</time>
      </trkpt>
      <trkpt lat="52.33318870" lon="9.282819620">
        <ele>97.000000</ele>
        <time>2010-01-01T01:27:09Z</time>
      </trkpt>
      <trkpt lat="52.33178570" lon="9.281360500">
        <ele>98.000000</ele>
        <time>2010-01-01T01:28:16Z</time>
      </trkpt>
      <trkpt lat="52.33153330" lon="9.281044000">
        <ele>98.000000</ele>
        <time>2010-01-01T01:28:28Z</time>
      </trkpt>
      <trkpt lat="52.33151690" lon="9.280963540">
        <ele>98.000000</ele>
        <time>2010-01-01T01:28:30Z</time>
      </trkpt>
      <trkpt lat="52.33108410" lon="9.280518290">
        <ele>97.000000</ele>
        <time>2010-01-01T01:28:51Z</time>
      </trkpt>
      <trkpt lat="52.33096610" lon="9.280695310">
        <ele>98.000000</ele>
        <time>2010-01-01T01:28:57Z</time>
      </trkpt>
      <trkpt lat="52.33083170" lon="9.280915260">
        <ele>98.000000</ele>
        <time>2010-01-01T01:29:05Z</time>
      </trkpt>
      <trkpt lat="52.33069730" lon="9.281258580">
        <ele>99.000000</ele>
        <time>2010-01-01T01:29:15Z</time>
      </trkpt>
      <trkpt lat="52.33057930" lon="9.281612630">
        <ele>100.00000</ele>
        <time>2010-01-01T01:29:25Z</time>
      </trkpt>
      <trkpt lat="52.33014000" lon="9.282508490">
        <ele>102.00000</ele>
        <time>2010-01-01T01:29:53Z</time>
      </trkpt>
      <trkpt lat="52.32935000" lon="9.283790580">
        <ele>109.00000</ele>
        <time>2010-01-01T01:30:37Z</time>
      </trkpt>
      <trkpt lat="52.32928770" lon="9.283881780">
        <ele>110.00000</ele>
        <time>2010-01-01T01:30:41Z</time>
      </trkpt>
      <trkpt lat="52.32910080" lon="9.284230470">
        <ele>112.00000</ele>
        <time>2010-01-01T01:30:52Z</time>
      </trkpt>
      <trkpt lat="52.32873360" lon="9.284901020">
        <ele>114.00000</ele>
        <time>2010-01-01T01:31:14Z</time>
      </trkpt>
      <trkpt lat="52.32833040" lon="9.285700320">
        <ele>118.00000</ele>
        <time>2010-01-01T01:31:40Z</time>
      </trkpt>
      <trkpt lat="52.32814680" lon="9.286145560">
        <ele>122.00000</ele>
        <time>2010-01-01T01:31:53Z</time>
      </trkpt>
      <trkpt lat="52.32804520" lon="9.286478160">
        <ele>124.00000</ele>
        <time>2010-01-01T01:32:02Z</time>
      </trkpt>
      <trkpt lat="52.32782220" lon="9.287545680">
        <ele>136.00000</ele>
        <time>2010-01-01T01:32:29Z</time>
      </trkpt>
      <trkpt lat="52.32775340" lon="9.287728070">
        <ele>139.00000</ele>
        <time>2010-01-01T01:32:35Z</time>
      </trkpt>
      <trkpt lat="52.32752390" lon="9.288205500">
        <ele>141.00000</ele>
        <time>2010-01-01T01:32:49Z</time>
      </trkpt>
      <trkpt lat="52.32735010" lon="9.288548820">
        <ele>141.00000</ele>
        <time>2010-01-01T01:33:00Z</time>
      </trkpt>
      <trkpt lat="52.32687480" lon="9.289095990">
        <ele>142.00000</ele>
        <time>2010-01-01T01:33:24Z</time>
      </trkpt>
      <trkpt lat="52.32621910" lon="9.289911380">
        <ele>147.00000</ele>
        <time>2010-01-01T01:33:57Z</time>
      </trkpt>
      <trkpt lat="52.32573380" lon="9.290549750">
        <ele>152.00000</ele>
        <time>2010-01-01T01:34:22Z</time>
      </trkpt>
      <trkpt lat="52.32525190" lon="9.291300770">
        <ele>155.00000</ele>
        <time>2010-01-01T01:34:48Z</time>
      </trkpt>
      <trkpt lat="52.32480270" lon="9.292019600">
        <ele>159.00000</ele>
        <time>2010-01-01T01:35:13Z</time>
      </trkpt>
      <trkpt lat="52.32419290" lon="9.293044200">
        <ele>164.00000</ele>
        <time>2010-01-01T01:35:48Z</time>
      </trkpt>
      <trkpt lat="52.32403220" lon="9.293258780">
        <ele>165.00000</ele>
        <time>2010-01-01T01:35:57Z</time>
      </trkpt>
      <trkpt lat="52.32376990" lon="9.293746940">
        <ele>166.00000</ele>
        <time>2010-01-01T01:36:12Z</time>
      </trkpt>
      <trkpt lat="52.32352400" lon="9.294524780">
        <ele>166.00000</ele>
        <time>2010-01-01T01:36:34Z</time>
      </trkpt>
      <trkpt lat="52.32299940" lon="9.296085830">
        <ele>169.00000</ele>
        <time>2010-01-01T01:37:18Z</time>
      </trkpt>
      <trkpt lat="52.32295350" lon="9.296364780">
        <ele>169.00000</ele>
        <time>2010-01-01T01:37:25Z</time>
      </trkpt>
      <trkpt lat="52.32285510" lon="9.297319650">
        <ele>168.00000</ele>
        <time>2010-01-01T01:37:48Z</time>
      </trkpt>
      <trkpt lat="52.32276660" lon="9.298424720">
        <ele>164.00000</ele>
        <time>2010-01-01T01:38:16Z</time>
      </trkpt>
      <trkpt lat="52.32189120" lon="9.297925820">
        <ele>159.00000</ele>
        <time>2010-01-01T01:38:53Z</time>
      </trkpt>
      <trkpt lat="52.32128780" lon="9.296847580">
        <ele>158.00000</ele>
        <time>2010-01-01T01:39:28Z</time>
      </trkpt>
      <trkpt lat="52.32062880" lon="9.295232890">
        <ele>160.00000</ele>
        <time>2010-01-01T01:40:16Z</time>
      </trkpt>
      <trkpt lat="52.31959590" lon="9.294320940">
        <ele>160.00000</ele>
        <time>2010-01-01T01:41:03Z</time>
      </trkpt>
      <trkpt lat="52.31956970" lon="9.294524780">
        <ele>156.00000</ele>
        <time>2010-01-01T01:41:08Z</time>
      </trkpt>
      <trkpt lat="52.31961560" lon="9.295640580">
        <ele>142.00000</ele>
        <time>2010-01-01T01:41:35Z</time>
      </trkpt>
      <trkpt lat="52.31959920" lon="9.295833700">
        <ele>141.00000</ele>
        <time>2010-01-01T01:41:40Z</time>
      </trkpt>
      <trkpt lat="52.31912370" lon="9.298419350">
        <ele>129.00000</ele>
        <time>2010-01-01T01:42:46Z</time>
      </trkpt>
      <trkpt lat="52.31479190" lon="9.296295040">
        <ele>115.00000</ele>
        <time>2010-01-01T01:45:47Z</time>
      </trkpt>
      <trkpt lat="52.31479190" lon="9.295603030">
        <ele>117.00000</ele>
        <time>2010-01-01T01:46:04Z</time>
      </trkpt>
      <trkpt lat="52.31108600" lon="9.296101920">
        <ele>120.00000</ele>
        <time>2010-01-01T01:48:33Z</time>
      </trkpt>
      <trkpt lat="52.31091870" lon="9.303075670">
        <ele>96.000000</ele>
        <time>2010-01-01T01:51:24Z</time>
      </trkpt>
      <trkpt lat="52.31078430" lon="9.303510180">
        <ele>97.000000</ele>
        <time>2010-01-01T01:51:36Z</time>
      </trkpt>
      <trkpt lat="52.31054480" lon="9.303966160">
        <ele>98.000000</ele>
        <time>2010-01-01T01:51:50Z</time>
      </trkpt>
      <trkpt lat="52.31050220" lon="9.304164640">
        <ele>98.000000</ele>
        <time>2010-01-01T01:51:56Z</time>
      </trkpt>
      <trkpt lat="52.30954450" lon="9.304325580">
        <ele>99.000000</ele>
        <time>2010-01-01T01:52:34Z</time>
      </trkpt>
      <trkpt lat="52.30897710" lon="9.304400680">
        <ele>98.000000</ele>
        <time>2010-01-01T01:52:57Z</time>
      </trkpt>
      <trkpt lat="52.30845560" lon="9.304347030">
        <ele>99.000000</ele>
        <time>2010-01-01T01:53:18Z</time>
      </trkpt>
      <trkpt lat="52.30807840" lon="9.304196830">
        <ele>99.000000</ele>
        <time>2010-01-01T01:53:33Z</time>
      </trkpt>
      <trkpt lat="52.30786850" lon="9.303998350">
        <ele>99.000000</ele>
        <time>2010-01-01T01:53:43Z</time>
      </trkpt>
      <trkpt lat="52.30771440" lon="9.304330940">
        <ele>99.000000</ele>
        <time>2010-01-01T01:53:53Z</time>
      </trkpt>
      <trkpt lat="52.30758640" lon="9.304894200">
        <ele>99.000000</ele>
        <time>2010-01-01T01:54:08Z</time>
      </trkpt>
      <trkpt lat="52.30768480" lon="9.305811520">
        <ele>99.000000</ele>
        <time>2010-01-01T01:54:31Z</time>
      </trkpt>
      <trkpt lat="52.30784880" lon="9.306562540">
        <ele>98.000000</ele>
        <time>2010-01-01T01:54:50Z</time>
      </trkpt>
      <trkpt lat="52.30792430" lon="9.307565680">
        <ele>97.000000</ele>
        <time>2010-01-01T01:55:15Z</time>
      </trkpt>
      <trkpt lat="52.30792760" lon="9.308606380">
        <ele>97.000000</ele>
        <time>2010-01-01T01:55:41Z</time>
      </trkpt>
      <trkpt lat="52.30793740" lon="9.308976530">
        <ele>97.000000</ele>
        <time>2010-01-01T01:55:50Z</time>
      </trkpt>
      <trkpt lat="52.30804890" lon="9.309421770">
        <ele>97.000000</ele>
        <time>2010-01-01T01:56:01Z</time>
      </trkpt>
      <trkpt lat="52.30828510" lon="9.310585850">
        <ele>100.00000</ele>
        <time>2010-01-01T01:56:31Z</time>
      </trkpt>
      <trkpt lat="52.30834740" lon="9.310768240">
        <ele>99.000000</ele>
        <time>2010-01-01T01:56:37Z</time>
      </trkpt>
      <trkpt lat="52.30840640" lon="9.311106200">
        <ele>100.00000</ele>
        <time>2010-01-01T01:56:45Z</time>
      </trkpt>
      <trkpt lat="52.30855400" lon="9.311921590">
        <ele>100.00000</ele>
        <time>2010-01-01T01:57:06Z</time>
      </trkpt>
      <trkpt lat="52.30861300" lon="9.312490220">
        <ele>98.000000</ele>
        <time>2010-01-01T01:57:20Z</time>
      </trkpt>
      <trkpt lat="52.30861960" lon="9.313085670">
        <ele>96.000000</ele>
        <time>2010-01-01T01:57:35Z</time>
      </trkpt>
      <trkpt lat="52.30858680" lon="9.313632840">
        <ele>96.000000</ele>
        <time>2010-01-01T01:57:48Z</time>
      </trkpt>
      <trkpt lat="52.30846870" lon="9.314491150">
        <ele>96.000000</ele>
        <time>2010-01-01T01:58:10Z</time>
      </trkpt>
      <trkpt lat="52.30836380" lon="9.314845200">
        <ele>95.000000</ele>
        <time>2010-01-01T01:58:19Z</time>
      </trkpt>
      <trkpt lat="52.30807190" lon="9.315295810">
        <ele>93.000000</ele>
        <time>2010-01-01T01:58:35Z</time>
      </trkpt>
      <trkpt lat="52.30762250" lon="9.316374060">
        <ele>89.000000</ele>
        <time>2010-01-01T01:59:07Z</time>
      </trkpt>
      <trkpt lat="52.30738960" lon="9.316771030">
        <ele>89.000000</ele>
        <time>2010-01-01T01:59:21Z</time>
      </trkpt>
      <trkpt lat="52.30670410" lon="9.317613240">
        <ele>93.000000</ele>
        <time>2010-01-01T01:59:55Z</time>
      </trkpt>
      <trkpt lat="52.30540200" lon="9.319759010">
        <ele>86.000000</ele>
        <time>2010-01-01T02:01:09Z</time>
      </trkpt>
      <trkpt lat="52.30526420" lon="9.319860930">
        <ele>86.000000</ele>
        <time>2010-01-01T02:01:15Z</time>
      </trkpt>
      <trkpt lat="52.30485420" lon="9.320043320">
        <ele>86.000000</ele>
        <time>2010-01-01T02:01:32Z</time>
      </trkpt>
      <trkpt lat="52.30501820" lon="9.320284720">
        <ele>85.000000</ele>
        <time>2010-01-01T02:01:41Z</time>
      </trkpt>
      <trkpt lat="52.30578240" lon="9.320853350">
        <ele>83.000000</ele>
        <time>2010-01-01T02:02:15Z</time>
      </trkpt>
      <trkpt lat="52.30635320" lon="9.321218130">
        <ele>81.000000</ele>
        <time>2010-01-01T02:02:39Z</time>
      </trkpt>
      <trkpt lat="52.30655980" lon="9.321336150">
        <ele>81.000000</ele>
        <time>2010-01-01T02:02:48Z</time>
      </trkpt>
      <trkpt lat="52.30721250" lon="9.321743840">
        <ele>80.000000</ele>
        <time>2010-01-01T02:03:16Z</time>
      </trkpt>
      <trkpt lat="52.30847530" lon="9.322768440">
        <ele>80.000000</ele>
        <time>2010-01-01T02:04:12Z</time>
      </trkpt>
      <trkpt lat="52.30808170" lon="9.323707220">
        <ele>82.000000</ele>
        <time>2010-01-01T02:04:40Z</time>
      </trkpt>
      <trkpt lat="52.30798000" lon="9.324034450">
        <ele>82.000000</ele>
        <time>2010-01-01T02:04:49Z</time>
      </trkpt>
      <trkpt lat="52.30793410" lon="9.324404590">
        <ele>81.000000</ele>
        <time>2010-01-01T02:04:58Z</time>
      </trkpt>
      <trkpt lat="52.30793080" lon="9.324694270">
        <ele>81.000000</ele>
        <time>2010-01-01T02:05:05Z</time>
      </trkpt>
      <trkpt lat="52.30796690" lon="9.324919580">
        <ele>81.000000</ele>
        <time>2010-01-01T02:05:11Z</time>
      </trkpt>
      <trkpt lat="52.30797020" lon="9.325107330">
        <ele>81.000000</ele>
        <time>2010-01-01T02:05:16Z</time>
      </trkpt>
      <trkpt lat="52.30794070" lon="9.325262900">
        <ele>81.000000</ele>
        <time>2010-01-01T02:05:20Z</time>
      </trkpt>
      <trkpt lat="52.30788490" lon="9.325370190">
        <ele>81.000000</ele>
        <time>2010-01-01T02:05:23Z</time>
      </trkpt>
      <trkpt lat="52.30778000" lon="9.325386280">
        <ele>81.000000</ele>
        <time>2010-01-01T02:05:27Z</time>
      </trkpt>
      <trkpt lat="52.30759960" lon="9.325321910">
        <ele>81.000000</ele>
        <time>2010-01-01T02:05:35Z</time>
      </trkpt>
      <trkpt lat="52.30746510" lon="9.325327270">
        <ele>81.000000</ele>
        <time>2010-01-01T02:05:40Z</time>
      </trkpt>
      <trkpt lat="52.30737320" lon="9.325434560">
        <ele>81.000000</ele>
        <time>2010-01-01T02:05:45Z</time>
      </trkpt>
      <trkpt lat="52.30731750" lon="9.325611590">
        <ele>81.000000</ele>
        <time>2010-01-01T02:05:50Z</time>
      </trkpt>
      <trkpt lat="52.30729780" lon="9.326056830">
        <ele>81.000000</ele>
        <time>2010-01-01T02:06:00Z</time>
      </trkpt>
      <trkpt lat="52.30726170" lon="9.326362600">
        <ele>81.000000</ele>
        <time>2010-01-01T02:06:08Z</time>
      </trkpt>
      <trkpt lat="52.30713710" lon="9.326802490">
        <ele>81.000000</ele>
        <time>2010-01-01T02:06:20Z</time>
      </trkpt>
      <trkpt lat="52.30650730" lon="9.326764940">
        <ele>79.000000</ele>
        <time>2010-01-01T02:06:45Z</time>
      </trkpt>
      <trkpt lat="52.30628430" lon="9.326834670">
        <ele>79.000000</ele>
        <time>2010-01-01T02:06:54Z</time>
      </trkpt>
      <trkpt lat="52.30598580" lon="9.327086800">
        <ele>80.000000</ele>
        <time>2010-01-01T02:07:08Z</time>
      </trkpt>
      <trkpt lat="52.30504110" lon="9.328148960">
        <ele>79.000000</ele>
        <time>2010-01-01T02:07:54Z</time>
      </trkpt>
      <trkpt lat="52.30489680" lon="9.328266970">
        <ele>79.000000</ele>
        <time>2010-01-01T02:08:00Z</time>
      </trkpt>
      <trkpt lat="52.30473610" lon="9.328325980">
        <ele>79.000000</ele>
        <time>2010-01-01T02:08:07Z</time>
      </trkpt>
      <trkpt lat="52.30385370" lon="9.328460090">
        <ele>78.000000</ele>
        <time>2010-01-01T02:08:42Z</time>
      </trkpt>
      <trkpt lat="52.30357820" lon="9.328631750">
        <ele>78.000000</ele>
        <time>2010-01-01T02:08:54Z</time>
      </trkpt>
      <trkpt lat="52.30305660" lon="9.329339860">
        <ele>80.000000</ele>
        <time>2010-01-01T02:09:21Z</time>
      </trkpt>
      <trkpt lat="52.30195450" lon="9.326711290">
        <ele>83.000000</ele>
        <time>2010-01-01T02:10:39Z</time>
      </trkpt>
      <trkpt lat="52.30174780" lon="9.326089020">
        <ele>84.000000</ele>
        <time>2010-01-01T02:10:56Z</time>
      </trkpt>
      <trkpt lat="52.30167890" lon="9.325225350">
        <ele>84.000000</ele>
        <time>2010-01-01T02:11:18Z</time>
      </trkpt>
      <trkpt lat="52.30166580" lon="9.322602150">
        <ele>83.000000</ele>
        <time>2010-01-01T02:12:22Z</time>
      </trkpt>
      <trkpt lat="52.30164280" lon="9.321894040">
        <ele>83.000000</ele>
        <time>2010-01-01T02:12:39Z</time>
      </trkpt>
      <trkpt lat="52.30153780" lon="9.320890900">
        <ele>84.000000</ele>
        <time>2010-01-01T02:13:04Z</time>
      </trkpt>
      <trkpt lat="52.30141320" lon="9.320617310">
        <ele>85.000000</ele>
        <time>2010-01-01T02:13:13Z</time>
      </trkpt>
      <trkpt lat="52.30102940" lon="9.320756790">
        <ele>87.000000</ele>
        <time>2010-01-01T02:13:28Z</time>
      </trkpt>
      <trkpt lat="52.30089490" lon="9.320923080">
        <ele>88.000000</ele>
        <time>2010-01-01T02:13:35Z</time>
      </trkpt>
      <trkpt lat="52.30082600" lon="9.321931600">
        <ele>87.000000</ele>
        <time>2010-01-01T02:14:00Z</time>
      </trkpt>
      <trkpt lat="52.30075060" lon="9.322339290">
        <ele>85.000000</ele>
        <time>2010-01-01T02:14:10Z</time>
      </trkpt>
      <trkpt lat="52.30068820" lon="9.322505590">
        <ele>85.000000</ele>
        <time>2010-01-01T02:14:15Z</time>
      </trkpt>
      <trkpt lat="52.30058000" lon="9.322704070">
        <ele>85.000000</ele>
        <time>2010-01-01T02:14:22Z</time>
      </trkpt>
      <trkpt lat="52.29995010" lon="9.323637480">
        <ele>90.000000</ele>
        <time>2010-01-01T02:14:56Z</time>
      </trkpt>
      <trkpt lat="52.29949410" lon="9.324082730">
        <ele>91.000000</ele>
        <time>2010-01-01T02:15:17Z</time>
      </trkpt>
      <trkpt lat="52.29765370" lon="9.324876660">
        <ele>93.000000</ele>
        <time>2010-01-01T02:16:33Z</time>
      </trkpt>
      <trkpt lat="52.29712880" lon="9.325343370">
        <ele>94.000000</ele>
        <time>2010-01-01T02:16:57Z</time>
      </trkpt>
      <trkpt lat="52.29668590" lon="9.325783250">
        <ele>95.000000</ele>
        <time>2010-01-01T02:17:18Z</time>
      </trkpt>
      <trkpt lat="52.29644970" lon="9.325933450">
        <ele>95.000000</ele>
        <time>2010-01-01T02:17:28Z</time>
      </trkpt>
      <trkpt lat="52.29610190" lon="9.325842260">
        <ele>96.000000</ele>
        <time>2010-01-01T02:17:42Z</time>
      </trkpt>
      <trkpt lat="52.29587560" lon="9.329436420">
        <ele>96.000000</ele>
        <time>2010-01-01T02:19:10Z</time>
      </trkpt>
      <trkpt lat="52.29567870" lon="9.329479330">
        <ele>96.000000</ele>
        <time>2010-01-01T02:19:18Z</time>
      </trkpt>
      <trkpt lat="52.29546870" lon="9.329468600">
        <ele>96.000000</ele>
        <time>2010-01-01T02:19:27Z</time>
      </trkpt>
      <trkpt lat="52.29544910" lon="9.329951400">
        <ele>97.000000</ele>
        <time>2010-01-01T02:19:39Z</time>
      </trkpt>
      <trkpt lat="52.29541300" lon="9.332231280">
        <ele>101.00000</ele>
        <time>2010-01-01T02:20:34Z</time>
      </trkpt>
      <trkpt lat="52.29574760" lon="9.332333200">
        <ele>102.00000</ele>
        <time>2010-01-01T02:20:48Z</time>
      </trkpt>
      <trkpt lat="52.29572140" lon="9.332767720">
        <ele>102.00000</ele>
        <time>2010-01-01T02:20:59Z</time>
      </trkpt>
      <trkpt lat="52.29542610" lon="9.332901830">
        <ele>102.00000</ele>
        <time>2010-01-01T02:21:11Z</time>
      </trkpt>
      <trkpt lat="52.29509470" lon="9.332976930">
        <ele>101.00000</ele>
        <time>2010-01-01T02:21:24Z</time>
      </trkpt>
      <trkpt lat="52.29480600" lon="9.332985000">
        <ele>101.00000</ele>
        <time>2010-01-01T02:21:36Z</time>
      </trkpt>
      <trkpt lat="52.29444180" lon="9.332960840">
        <ele>101.00000</ele>
        <time>2010-01-01T02:21:51Z</time>
      </trkpt>
      <trkpt lat="52.29425480" lon="9.332955470">
        <ele>101.00000</ele>
        <time>2010-01-01T02:21:58Z</time>
      </trkpt>
      <trkpt lat="52.29374630" lon="9.333052030">
        <ele>100.00000</ele>
        <time>2010-01-01T02:22:19Z</time>
      </trkpt>
      <trkpt lat="52.29359540" lon="9.333148590">
        <ele>99.000000</ele>
        <time>2010-01-01T02:22:25Z</time>
      </trkpt>
      <trkpt lat="52.29346080" lon="9.333314890">
        <ele>98.000000</ele>
        <time>2010-01-01T02:22:32Z</time>
      </trkpt>
      <trkpt lat="52.29317210" lon="9.334033720">
        <ele>97.000000</ele>
        <time>2010-01-01T02:22:53Z</time>
      </trkpt>
      <trkpt lat="52.29298840" lon="9.334285850">
        <ele>96.000000</ele>
        <time>2010-01-01T02:23:02Z</time>
      </trkpt>
      <trkpt lat="52.29279150" lon="9.334452150">
        <ele>97.000000</ele>
        <time>2010-01-01T02:23:11Z</time>
      </trkpt>
      <trkpt lat="52.29266680" lon="9.334414600">
        <ele>96.000000</ele>
        <time>2010-01-01T02:23:16Z</time>
      </trkpt>
      <trkpt lat="52.29253890" lon="9.334425330">
        <ele>96.000000</ele>
        <time>2010-01-01T02:23:22Z</time>
      </trkpt>
      <trkpt lat="52.29204340" lon="9.334543340">
        <ele>95.000000</ele>
        <time>2010-01-01T02:23:42Z</time>
      </trkpt>
      <trkpt lat="52.29122640" lon="9.334822290">
        <ele>95.000000</ele>
        <time>2010-01-01T02:24:15Z</time>
      </trkpt>
      <trkpt lat="52.29098360" lon="9.335015410">
        <ele>94.000000</ele>
        <time>2010-01-01T02:24:26Z</time>
      </trkpt>
      <trkpt lat="52.29069820" lon="9.335348010">
        <ele>94.000000</ele>
        <time>2010-01-01T02:24:40Z</time>
      </trkpt>
      <trkpt lat="52.28984830" lon="9.336141940">
        <ele>94.000000</ele>
        <time>2010-01-01T02:25:19Z</time>
      </trkpt>
      <trkpt lat="52.28939550" lon="9.336737390">
        <ele>92.000000</ele>
        <time>2010-01-01T02:25:42Z</time>
      </trkpt>
      <trkpt lat="52.28887710" lon="9.337279200">
        <ele>89.000000</ele>
        <time>2010-01-01T02:26:07Z</time>
      </trkpt>
      <trkpt lat="52.28878190" lon="9.337397210">
        <ele>88.000000</ele>
        <time>2010-01-01T02:26:12Z</time>
      </trkpt>
      <trkpt lat="52.28868020" lon="9.337483040">
        <ele>87.000000</ele>
        <time>2010-01-01T02:26:16Z</time>
      </trkpt>
      <trkpt lat="52.28849320" lon="9.337509870">
        <ele>85.000000</ele>
        <time>2010-01-01T02:26:24Z</time>
      </trkpt>
      <trkpt lat="52.28831930" lon="9.337477680">
        <ele>83.000000</ele>
        <time>2010-01-01T02:26:31Z</time>
      </trkpt>
      <trkpt lat="52.28814860" lon="9.337547420">
        <ele>83.000000</ele>
        <time>2010-01-01T02:26:38Z</time>
      </trkpt>
      <trkpt lat="52.28788280" lon="9.337525960">
        <ele>82.000000</ele>
        <time>2010-01-01T02:26:48Z</time>
      </trkpt>
      <trkpt lat="52.28774830" lon="9.337579600">
        <ele>82.000000</ele>
        <time>2010-01-01T02:26:54Z</time>
      </trkpt>
      <trkpt lat="52.28763020" lon="9.337713710">
        <ele>82.000000</ele>
        <time>2010-01-01T02:27:00Z</time>
      </trkpt>
      <trkpt lat="52.28756130" lon="9.337863920">
        <ele>82.000000</ele>
        <time>2010-01-01T02:27:04Z</time>
      </trkpt>
      <trkpt lat="52.28751860" lon="9.338057040">
        <ele>81.000000</ele>
        <time>2010-01-01T02:27:09Z</time>
      </trkpt>
      <trkpt lat="52.28743330" lon="9.338180420">
        <ele>81.000000</ele>
        <time>2010-01-01T02:27:14Z</time>
      </trkpt>
      <trkpt lat="52.28732170" lon="9.338303800">
        <ele>81.000000</ele>
        <time>2010-01-01T02:27:19Z</time>
      </trkpt>
      <trkpt lat="52.28729870" lon="9.338405720">
        <ele>81.000000</ele>
        <time>2010-01-01T02:27:22Z</time>
      </trkpt>
      <trkpt lat="52.28715440" lon="9.338405720">
        <ele>82.000000</ele>
        <time>2010-01-01T02:27:28Z</time>
      </trkpt>
      <trkpt lat="52.28684260" lon="9.338598840">
        <ele>83.000000</ele>
        <time>2010-01-01T02:27:41Z</time>
      </trkpt>
      <trkpt lat="52.28646200" lon="9.338545200">
        <ele>85.000000</ele>
        <time>2010-01-01T02:27:56Z</time>
      </trkpt>
      <trkpt lat="52.28648820" lon="9.338153600">
        <ele>84.000000</ele>
        <time>2010-01-01T02:28:06Z</time>
      </trkpt>
      <trkpt lat="52.28649480" lon="9.337729810">
        <ele>84.000000</ele>
        <time>2010-01-01T02:28:16Z</time>
      </trkpt>
      <trkpt lat="52.28650460" lon="9.337525960">
        <ele>85.000000</ele>
        <time>2010-01-01T02:28:21Z</time>
      </trkpt>
      <trkpt lat="52.28653740" lon="9.337381120">
        <ele>86.000000</ele>
        <time>2010-01-01T02:28:25Z</time>
      </trkpt>
      <trkpt lat="52.28646530" lon="9.337375760">
        <ele>86.000000</ele>
        <time>2010-01-01T02:28:28Z</time>
      </trkpt>
      <trkpt lat="52.28622240" lon="9.337445490">
        <ele>86.000000</ele>
        <time>2010-01-01T02:28:38Z</time>
      </trkpt>
      <trkpt lat="52.28591720" lon="9.337493770">
        <ele>88.000000</ele>
        <time>2010-01-01T02:28:50Z</time>
      </trkpt>
      <trkpt lat="52.28537910" lon="9.337488410">
        <ele>91.000000</ele>
        <time>2010-01-01T02:29:12Z</time>
      </trkpt>
      <trkpt lat="52.28448650" lon="9.337365030">
        <ele>91.000000</ele>
        <time>2010-01-01T02:29:48Z</time>
      </trkpt>
      <trkpt lat="52.28424360" lon="9.337311380">
        <ele>91.000000</ele>
        <time>2010-01-01T02:29:58Z</time>
      </trkpt>
      <trkpt lat="52.28379080" lon="9.336941240">
        <ele>92.000000</ele>
        <time>2010-01-01T02:30:18Z</time>
      </trkpt>
      <trkpt lat="52.28335760" lon="9.336538910">
        <ele>92.000000</ele>
        <time>2010-01-01T02:30:38Z</time>
      </trkpt>
      <trkpt lat="52.28286860" lon="9.336163400">
        <ele>94.000000</ele>
        <time>2010-01-01T02:30:59Z</time>
      </trkpt>
      <trkpt lat="52.28206130" lon="9.335621590">
        <ele>100.00000</ele>
        <time>2010-01-01T02:31:34Z</time>
      </trkpt>
      <trkpt lat="52.28061400" lon="9.334784740">
        <ele>106.00000</ele>
        <time>2010-01-01T02:32:36Z</time>
      </trkpt>
      <trkpt lat="52.28029560" lon="9.334672090">
        <ele>108.00000</ele>
        <time>2010-01-01T02:32:49Z</time>
      </trkpt>
      <trkpt lat="52.27945870" lon="9.334634540">
        <ele>112.00000</ele>
        <time>2010-01-01T02:33:22Z</time>
      </trkpt>
      <trkpt lat="52.27904190" lon="9.334650630">
        <ele>116.00000</ele>
        <time>2010-01-01T02:33:39Z</time>
      </trkpt>
      <trkpt lat="52.27885810" lon="9.334725730">
        <ele>118.00000</ele>
        <time>2010-01-01T02:33:47Z</time>
      </trkpt>
      <trkpt lat="52.27840520" lon="9.334967130">
        <ele>120.00000</ele>
        <time>2010-01-01T02:34:06Z</time>
      </trkpt>
      <trkpt lat="52.27813280" lon="9.335058330">
        <ele>121.00000</ele>
        <time>2010-01-01T02:34:17Z</time>
      </trkpt>
      <trkpt lat="52.27783410" lon="9.335106610">
        <ele>122.00000</ele>
        <time>2010-01-01T02:34:29Z</time>
      </trkpt>
      <trkpt lat="52.27639320" lon="9.335326550">
        <ele>120.00000</ele>
        <time>2010-01-01T02:35:27Z</time>
      </trkpt>
      <trkpt lat="52.27623570" lon="9.335315820">
        <ele>120.00000</ele>
        <time>2010-01-01T02:35:33Z</time>
      </trkpt>
      <trkpt lat="52.27611750" lon="9.335240720">
        <ele>120.00000</ele>
        <time>2010-01-01T02:35:38Z</time>
      </trkpt>
      <trkpt lat="52.27600590" lon="9.335090510">
        <ele>119.00000</ele>
        <time>2010-01-01T02:35:44Z</time>
      </trkpt>
      <trkpt lat="52.27571710" lon="9.334452150">
        <ele>120.00000</ele>
        <time>2010-01-01T02:36:03Z</time>
      </trkpt>
      <trkpt lat="52.27460110" lon="9.332097170">
        <ele>125.00000</ele>
        <time>2010-01-01T02:37:16Z</time>
      </trkpt>
      <trkpt lat="52.27451250" lon="9.331952330">
        <ele>126.00000</ele>
        <time>2010-01-01T02:37:21Z</time>
      </trkpt>
      <trkpt lat="52.27441730" lon="9.331850400">
        <ele>126.00000</ele>
        <time>2010-01-01T02:37:26Z</time>
      </trkpt>
      <trkpt lat="52.27432210" lon="9.331780670">
        <ele>126.00000</ele>
        <time>2010-01-01T02:37:30Z</time>
      </trkpt>
      <trkpt lat="52.27424330" lon="9.331780670">
        <ele>125.00000</ele>
        <time>2010-01-01T02:37:33Z</time>
      </trkpt>
      <trkpt lat="52.27413500" lon="9.331845040">
        <ele>125.00000</ele>
        <time>2010-01-01T02:37:38Z</time>
      </trkpt>
      <trkpt lat="52.27403650" lon="9.331952330">
        <ele>124.00000</ele>
        <time>2010-01-01T02:37:43Z</time>
      </trkpt>
      <trkpt lat="52.27377060" lon="9.332268830">
        <ele>123.00000</ele>
        <time>2010-01-01T02:37:56Z</time>
      </trkpt>
      <trkpt lat="52.27369510" lon="9.332397580">
        <ele>122.00000</ele>
        <time>2010-01-01T02:38:00Z</time>
      </trkpt>
      <trkpt lat="52.27367220" lon="9.332596060">
        <ele>120.00000</ele>
        <time>2010-01-01T02:38:05Z</time>
      </trkpt>
      <trkpt lat="52.27370500" lon="9.335069060">
        <ele>111.00000</ele>
        <time>2010-01-01T02:39:06Z</time>
      </trkpt>
      <trkpt lat="52.27365250" lon="9.335401650">
        <ele>110.00000</ele>
        <time>2010-01-01T02:39:14Z</time>
      </trkpt>
      <trkpt lat="52.27352120" lon="9.335626950">
        <ele>110.00000</ele>
        <time>2010-01-01T02:39:22Z</time>
      </trkpt>
      <trkpt lat="52.27333080" lon="9.335755700">
        <ele>112.00000</ele>
        <time>2010-01-01T02:39:30Z</time>
      </trkpt>
      <trkpt lat="52.27155820" lon="9.336029290">
        <ele>122.00000</ele>
        <time>2010-01-01T02:40:41Z</time>
      </trkpt>
      <trkpt lat="52.27164690" lon="9.337091440">
        <ele>121.00000</ele>
        <time>2010-01-01T02:41:07Z</time>
      </trkpt>
      <trkpt lat="52.27208020" lon="9.343534110">
        <ele>109.00000</ele>
        <time>2010-01-01T02:43:46Z</time>
      </trkpt>
      <trkpt lat="52.26998250" lon="9.344183200">
        <ele>109.00000</ele>
        <time>2010-01-01T02:45:12Z</time>
      </trkpt>
      <trkpt lat="52.26947700" lon="9.344349500">
        <ele>109.00000</ele>
        <time>2010-01-01T02:45:32Z</time>
      </trkpt>
      <trkpt lat="52.26829190" lon="9.344719640">
        <ele>107.00000</ele>
        <time>2010-01-01T02:46:21Z</time>
      </trkpt>
      <trkpt lat="52.26747120" lon="9.344966410">
        <ele>106.00000</ele>
        <time>2010-01-01T02:46:54Z</time>
      </trkpt>
      <trkpt lat="52.26786510" lon="9.347235560">
        <ele>102.00000</ele>
        <time>2010-01-01T02:47:52Z</time>
      </trkpt>
      <trkpt lat="52.26802270" lon="9.348362080">
        <ele>100.00000</ele>
        <time>2010-01-01T02:48:20Z</time>
      </trkpt>
      <trkpt lat="52.26740880" lon="9.348517650">
        <ele>97.000000</ele>
        <time>2010-01-01T02:48:45Z</time>
      </trkpt>
      <trkpt lat="52.26713960" lon="9.348506920">
        <ele>96.000000</ele>
        <time>2010-01-01T02:48:56Z</time>
      </trkpt>
      <trkpt lat="52.26716920" lon="9.348689310">
        <ele>95.000000</ele>
        <time>2010-01-01T02:49:00Z</time>
      </trkpt>
      <trkpt lat="52.26816720" lon="9.351001380">
        <ele>90.000000</ele>
        <time>2010-01-01T02:50:10Z</time>
      </trkpt>
      <trkpt lat="52.26825910" lon="9.351183770">
        <ele>90.000000</ele>
        <time>2010-01-01T02:50:15Z</time>
      </trkpt>
      <trkpt lat="52.26837400" lon="9.351366160">
        <ele>90.000000</ele>
        <time>2010-01-01T02:50:22Z</time>
      </trkpt>
      <trkpt lat="52.26962800" lon="9.353147140">
        <ele>89.000000</ele>
        <time>2010-01-01T02:51:28Z</time>
      </trkpt>
      <trkpt lat="52.27073760" lon="9.354740380">
        <ele>88.000000</ele>
        <time>2010-01-01T02:52:27Z</time>
      </trkpt>
      <trkpt lat="52.27078350" lon="9.354879850">
        <ele>88.000000</ele>
        <time>2010-01-01T02:52:31Z</time>
      </trkpt>
      <trkpt lat="52.27091480" lon="9.355131980">
        <ele>87.000000</ele>
        <time>2010-01-01T02:52:39Z</time>
      </trkpt>
      <trkpt lat="52.27101660" lon="9.355169530">
        <ele>88.000000</ele>
        <time>2010-01-01T02:52:44Z</time>
      </trkpt>
      <trkpt lat="52.27312730" lon="9.358398910">
        <ele>83.000000</ele>
        <time>2010-01-01T02:54:39Z</time>
      </trkpt>
      <trkpt lat="52.27321590" lon="9.358506200">
        <ele>83.000000</ele>
        <time>2010-01-01T02:54:44Z</time>
      </trkpt>
      <trkpt lat="52.27351460" lon="9.358806610">
        <ele>83.000000</ele>
        <time>2010-01-01T02:54:58Z</time>
      </trkpt>
      <trkpt lat="52.27380350" lon="9.359021180">
        <ele>83.000000</ele>
        <time>2010-01-01T02:55:11Z</time>
      </trkpt>
      <trkpt lat="52.27412190" lon="9.359133830">
        <ele>84.000000</ele>
        <time>2010-01-01T02:55:24Z</time>
      </trkpt>
      <trkpt lat="52.27442380" lon="9.359176750">
        <ele>83.000000</ele>
        <time>2010-01-01T02:55:36Z</time>
      </trkpt>
      <trkpt lat="52.27444020" lon="9.359450340">
        <ele>83.000000</ele>
        <time>2010-01-01T02:55:42Z</time>
      </trkpt>
      <trkpt lat="52.27448620" lon="9.359884850">
        <ele>82.000000</ele>
        <time>2010-01-01T02:55:53Z</time>
      </trkpt>
      <trkpt lat="52.27447960" lon="9.360217450">
        <ele>81.000000</ele>
        <time>2010-01-01T02:56:01Z</time>
      </trkpt>
      <trkpt lat="52.27443370" lon="9.360528580">
        <ele>82.000000</ele>
        <time>2010-01-01T02:56:09Z</time>
      </trkpt>
      <trkpt lat="52.27419080" lon="9.361392250">
        <ele>81.000000</ele>
        <time>2010-01-01T02:56:33Z</time>
      </trkpt>
      <trkpt lat="52.27410540" lon="9.361934060">
        <ele>81.000000</ele>
        <time>2010-01-01T02:56:46Z</time>
      </trkpt>
      <trkpt lat="52.27410540" lon="9.362400770">
        <ele>83.000000</ele>
        <time>2010-01-01T02:56:58Z</time>
      </trkpt>
      <trkpt lat="52.27408250" lon="9.362593880">
        <ele>84.000000</ele>
        <time>2010-01-01T02:57:02Z</time>
      </trkpt>
      <trkpt lat="52.27385600" lon="9.363521930">
        <ele>86.000000</ele>
        <time>2010-01-01T02:57:27Z</time>
      </trkpt>
      <trkpt lat="52.27372140" lon="9.364133470">
        <ele>84.000000</ele>
        <time>2010-01-01T02:57:43Z</time>
      </trkpt>
      <trkpt lat="52.27368860" lon="9.364707460">
        <ele>83.000000</ele>
        <time>2010-01-01T02:57:57Z</time>
      </trkpt>
      <trkpt lat="52.27378700" lon="9.365490670">
        <ele>84.000000</ele>
        <time>2010-01-01T02:58:17Z</time>
      </trkpt>
      <trkpt lat="52.27403980" lon="9.366182680">
        <ele>83.000000</ele>
        <time>2010-01-01T02:58:36Z</time>
      </trkpt>
      <trkpt lat="52.27414480" lon="9.366729850">
        <ele>84.000000</ele>
        <time>2010-01-01T02:58:50Z</time>
      </trkpt>
      <trkpt lat="52.27416450" lon="9.366922970">
        <ele>84.000000</ele>
        <time>2010-01-01T02:58:55Z</time>
      </trkpt>
      <trkpt lat="52.27420470" lon="9.367751800">
        <ele>87.000000</ele>
        <time>2010-01-01T02:59:16Z</time>
      </trkpt>
      <trkpt lat="52.27417110" lon="9.368108510">
        <ele>88.000000</ele>
        <time>2010-01-01T02:59:24Z</time>
      </trkpt>
      <trkpt lat="52.27400370" lon="9.368290900">
        <ele>88.000000</ele>
        <time>2010-01-01T02:59:32Z</time>
      </trkpt>
      <trkpt lat="52.27362950" lon="9.368580570">
        <ele>88.000000</ele>
        <time>2010-01-01T02:59:49Z</time>
      </trkpt>
      <trkpt lat="52.27333080" lon="9.368827340">
        <ele>87.000000</ele>
        <time>2010-01-01T03:00:02Z</time>
      </trkpt>
      <trkpt lat="52.27295990" lon="9.369159930">
        <ele>86.000000</ele>
        <time>2010-01-01T03:00:19Z</time>
      </trkpt>
      <trkpt lat="52.27294020" lon="9.369819760">
        <ele>88.000000</ele>
        <time>2010-01-01T03:00:36Z</time>
      </trkpt>
      <trkpt lat="52.27292380" lon="9.370179170">
        <ele>88.000000</ele>
        <time>2010-01-01T03:00:44Z</time>
      </trkpt>
      <trkpt lat="52.27290410" lon="9.370425930">
        <ele>89.000000</ele>
        <time>2010-01-01T03:00:50Z</time>
      </trkpt>
      <trkpt lat="52.27287120" lon="9.370667330">
        <ele>89.000000</ele>
        <time>2010-01-01T03:00:57Z</time>
      </trkpt>
      <trkpt lat="52.27263160" lon="9.371879690">
        <ele>91.000000</ele>
        <time>2010-01-01T03:01:28Z</time>
      </trkpt>
      <trkpt lat="52.27252330" lon="9.372619980">
        <ele>95.000000</ele>
        <time>2010-01-01T03:01:46Z</time>
      </trkpt>
      <trkpt lat="52.27246750" lon="9.373371000">
        <ele>96.000000</ele>
        <time>2010-01-01T03:02:05Z</time>
      </trkpt>
      <trkpt lat="52.27219830" lon="9.374996420">
        <ele>100.00000</ele>
        <time>2010-01-01T03:02:46Z</time>
      </trkpt>
      <trkpt lat="52.27186680" lon="9.377002710">
        <ele>103.00000</ele>
        <time>2010-01-01T03:03:37Z</time>
      </trkpt>
      <trkpt lat="52.27165670" lon="9.378333090">
        <ele>107.00000</ele>
        <time>2010-01-01T03:04:11Z</time>
      </trkpt>
      <trkpt lat="52.27147940" lon="9.379486440">
        <ele>105.00000</ele>
        <time>2010-01-01T03:04:40Z</time>
      </trkpt>
      <trkpt lat="52.27128200" lon="9.379717000">
        <ele>106.00000</ele>
        <time>2010-01-01T03:04:50Z</time>
      </trkpt>
      <trkpt lat="52.27108900" lon="9.379873000">
        <ele>108.00000</ele>
        <time>2010-01-01T03:04:58Z</time>
      </trkpt>
      <trkpt lat="52.27097400" lon="9.379245000">
        <ele>108.00000</ele>
        <time>2010-01-01T03:05:14Z</time>
      </trkpt>
    </trkseg>
  </trk>
</gpx>

